Huslia, Alaska
Current Conditions -  °F | °C
As of 6:36 AM on Saturday 22 Nov 2014 (Local Time) from PAHL Reporting Station
Clear Clear  
Wind Chill: -3°   Ceiling: Unl
Heat Index: 10°   Visibility: 10mi
Dew Point: -8°   Wind: 10mph
Humidity: 44%   Direction: 80°E
Pressure: 29.42"   Gusts: 18mph
Location:  65.7°N, 156.4°W
Report Text: PAHL 221536Z AUTO 08009G16KT 10SM CLR M12/M22 A2942 RMK AO1
Loading
Personal Weather Stations






























Interactive Weather Map New forecast layout! Learn more

10-Day Weather Forecast

Advertisements
Track Severe Weather on mobile